Decoded Metar for LFOV (LAVAL in FRANCE) (IATA:LVA) | Meteo·Mobile Aviation Weather
aviador You're here:

LFOV Decoded Metar

LAVAL in FRANCE
Report Time2018-10-17 04:30:00
UTC Time2018-10-17 04:52:37
Flight Rules lifr LIFR
Wind190° at 02 kt
W.Decomp.*RWY 14: 1.3 kt HW 1.6 kt RCW
W.Rank190° ranks 14
Current wind is below 190° avg. (7.4)
Visibility0550 m
Phenomena:Fog
Clouds:Few 004 Hf
CeilingNone
Temp07°C (ISA -7)
Dew Point07°C (100% RH)
AAT5.6°C
QNH1019 hPa
Density Alt-636 ft
Elevation318 ft
Report Wrong Elevation
Raw Report
METAR LFOV 170430Z AUTO 19002KT 0550 0500 FG FEW004 07/07 Q1019=

Extra information for LFOV:More info

Metar Taf Metar & Taf Last 4 Metars F.Rules Stats Wind Profile Meteogram Temp Stats Airport Information Weather charts Add Link Nearby VenuesMetar ALERT Operation Metar Decoded Social comments